Aviation Digital Data Service (ADDS)

Output produced by METARs form (1837 UTC 18 April 2019)
found at http://www.aviationweather.gov/metar/data/
 
METAR text: TDPD 181800Z 14005KT 9999 -SHRA VCSH BKN015 BKN034 26/21 Q1015
Conditions at: TDPD (MELVILLE HALL AR, DM) observed 1800 UTC 18 April 2019
Temperature: 26.0°C (79°F)
Dewpoint: 21.0°C (70°F) [RH = 74%]
Pressure (altimeter): 29.97 inches Hg (1015.0 mb)
Winds: from the SE (140 degrees) at 6 MPH (5 knots; 2.6 m/s)
Visibility: 6 or more miles (10+ km)
Ceiling: 1500 feet AGL
Clouds: broken clouds at 1500 feet AGL
broken clouds at 3400 feet AGL
Weather: -SHRA VCSH  (light rain showers, showers in vicinity)

METAR text: TDPD 181700Z 13006KT 9999 3000W -SHRA VCSH BKN014 BKN034 26/22 Q1016
Conditions at: TDPD (MELVILLE HALL AR, DM) observed 1700 UTC 18 April 2019
Temperature: 26.0°C (79°F)
Dewpoint: 22.0°C (72°F) [RH = 79%]
Pressure (altimeter): 30.00 inches Hg (1016.0 mb)
Winds: from the SE (130 degrees) at 7 MPH (6 knots; 3.1 m/s)
Visibility: 6 or more miles (10+ km)
Ceiling: 1400 feet AGL
Clouds: broken clouds at 1400 feet AGL
broken clouds at 3400 feet AGL
Weather: VCSH -SHRA  (showers in vicinity, light rain showers)

METAR text: TDPD 181600Z 12006KT 9999 SCT016 BKN034 28/22 Q1017
Conditions at: TDPD (MELVILLE HALL AR, DM) observed 1600 UTC 18 April 2019
Temperature: 28.0°C (82°F)
Dewpoint: 22.0°C (72°F) [RH = 70%]
Pressure (altimeter): 30.03 inches Hg (1017.0 mb)
Winds: from the ESE (120 degrees) at 7 MPH (6 knots; 3.1 m/s)
Visibility: 6 or more miles (10+ km)
Ceiling: 3400 feet AGL
Clouds: scattered clouds at 1600 feet AGL
broken clouds at 3400 feet AGL
Weather: no significant weather observed at this time

METAR text: TDPD 181500Z 11010KT 9999 VCSH BKN015 SCT034 28/23 Q1017
Conditions at: TDPD (MELVILLE HALL AR, DM) observed 1500 UTC 18 April 2019
Temperature: 28.0°C (82°F)
Dewpoint: 23.0°C (73°F) [RH = 74%]
Pressure (altimeter): 30.03 inches Hg (1017.0 mb)
Winds: from the ESE (110 degrees) at 12 MPH (10 knots; 5.1 m/s)
Visibility: 6 or more miles (10+ km)
Ceiling: 1500 feet AGL
Clouds: broken clouds at 1500 feet AGL
scattered clouds at 3400 feet AGL
Weather: VCSH  (showers in vicinity)

METAR text: TDPD 181400Z 13008KT 2000W 9999 -SHRA BKN015 BKN032 25/21 Q1017
Conditions at: TDPD (MELVILLE HALL AR, DM) observed 1400 UTC 18 April 2019
Temperature: 25.0°C (77°F)
Dewpoint: 21.0°C (70°F) [RH = 79%]
Pressure (altimeter): 30.03 inches Hg (1017.0 mb)
Winds: from the SE (130 degrees) at 9 MPH (8 knots; 4.1 m/s)
Visibility: 6 or more miles (10+ km)
Ceiling: 1500 feet AGL
Clouds: broken clouds at 1500 feet AGL
broken clouds at 3200 feet AGL
Weather: -SHRA  (light rain showers)

METAR text: TDPD 181300Z 20002KT 9999 -SHRA BKN015 BKN032 24/22 Q1017
Conditions at: TDPD (MELVILLE HALL AR, DM) observed 1300 UTC 18 April 2019
Temperature: 24.0°C (75°F)
Dewpoint: 22.0°C (72°F) [RH = 89%]
Pressure (altimeter): 30.03 inches Hg (1017.0 mb)
Winds: from the SSW (200 degrees) at 2 MPH (2 knots; 1.0 m/s)
Visibility: 6 or more miles (10+ km)
Ceiling: 1500 feet AGL
Clouds: broken clouds at 1500 feet AGL
broken clouds at 3200 feet AGL
Weather: -SHRA  (light rain showers)

METAR text: TDPD 181200Z 10009G21KT 2000W 9999 -SHRA BKN014 BKN032 24/21 Q1016
Conditions at: TDPD (MELVILLE HALL AR, DM) observed 1200 UTC 18 April 2019
Temperature: 24.0°C (75°F)
Dewpoint: 21.0°C (70°F) [RH = 83%]
Pressure (altimeter): 30.00 inches Hg (1016.0 mb)
Winds: from the E (100 degrees) at 10 MPH (9 knots; 4.6 m/s)
gusting to 24 MPH (21 knots; 10.8 m/s)
Visibility: 6 or more miles (10+ km)
Ceiling: 1400 feet AGL
Clouds: broken clouds at 1400 feet AGL
broken clouds at 3200 feet AGL
Weather: -SHRA  (light rain showers)

METAR text: TDPD 181100Z 10003KT 1000W 9999 -SHRA BKN014 BKN032 23/21 Q1015
Conditions at: TDPD (MELVILLE HALL AR, DM) observed 1100 UTC 18 April 2019
Temperature: 23.0°C (73°F)
Dewpoint: 21.0°C (70°F) [RH = 89%]
Pressure (altimeter): 29.97 inches Hg (1015.0 mb)
Winds: from the E (100 degrees) at 3 MPH (3 knots; 1.5 m/s)
Visibility: 6 or more miles (10+ km)
Ceiling: 1400 feet AGL
Clouds: broken clouds at 1400 feet AGL
broken clouds at 3200 feet AGL
Weather: -SHRA  (light rain showers)

METAR text: TDPD 181000Z 09003KT 9999 VCSH BKN015 23/21 Q1014
Conditions at: TDPD (MELVILLE HALL AR, DM) observed 1000 UTC 18 April 2019
Temperature: 23.0°C (73°F)
Dewpoint: 21.0°C (70°F) [RH = 89%]
Pressure (altimeter): 29.94 inches Hg (1014.0 mb)
Winds: from the E (90 degrees) at 3 MPH (3 knots; 1.5 m/s)
Visibility: 6 or more miles (10+ km)
Ceiling: 1500 feet AGL
Clouds: broken clouds at 1500 feet AGL
Weather: VCSH  (showers in vicinity)

METAR text: TDPD 180000Z 18002KT 9999 SCT016 SCT034 24/20 Q1015
Conditions at: TDPD (MELVILLE HALL AR, DM) observed 0000 UTC 18 April 2019
Temperature: 24.0°C (75°F)
Dewpoint: 20.0°C (68°F) [RH = 78%]
Pressure (altimeter): 29.97 inches Hg (1015.0 mb)
Winds: from the S (180 degrees) at 2 MPH (2 knots; 1.0 m/s)
Visibility: 6 or more miles (10+ km)
Ceiling: at least 12,000 feet AGL
Clouds: scattered clouds at 1600 feet AGL
scattered clouds at 3400 feet AGL
Weather: no significant weather observed at this time

METAR text: TDPD 172300Z 12004KT 9999 SCT016 SCT034 25/20 Q1014
Conditions at: TDPD (MELVILLE HALL AR, DM) observed 2300 UTC 17 April 2019
Temperature: 25.0°C (77°F)
Dewpoint: 20.0°C (68°F) [RH = 74%]
Pressure (altimeter): 29.94 inches Hg (1014.0 mb)
Winds: from the ESE (120 degrees) at 5 MPH (4 knots; 2.1 m/s)
Visibility: 6 or more miles (10+ km)
Ceiling: at least 12,000 feet AGL
Clouds: scattered clouds at 1600 feet AGL
scattered clouds at 3400 feet AGL
Weather: no significant weather observed at this time

METAR text: TDPD 172200Z 11007KT 9999 FEW016 BKN034 25/21 Q1014
Conditions at: TDPD (MELVILLE HALL AR, DM) observed 2200 UTC 17 April 2019
Temperature: 25.0°C (77°F)
Dewpoint: 21.0°C (70°F) [RH = 79%]
Pressure (altimeter): 29.94 inches Hg (1014.0 mb)
Winds: from the ESE (110 degrees) at 8 MPH (7 knots; 3.6 m/s)
Visibility: 6 or more miles (10+ km)
Ceiling: 3400 feet AGL
Clouds: few clouds at 1600 feet AGL
broken clouds at 3400 feet AGL
Weather: no significant weather observed at this time

METAR text: TDPD 172100Z 12006KT 9000 BKN016 SCT032 25/22 Q1014
Conditions at: TDPD (MELVILLE HALL AR, DM) observed 2100 UTC 17 April 2019
Temperature: 25.0°C (77°F)
Dewpoint: 22.0°C (72°F) [RH = 83%]
Pressure (altimeter): 29.94 inches Hg (1014.0 mb)
Winds: from the ESE (120 degrees) at 7 MPH (6 knots; 3.1 m/s)
Visibility: 6 miles ( 9 km)
Ceiling: 1600 feet AGL
Clouds: broken clouds at 1600 feet AGL
scattered clouds at 3200 feet AGL
Weather: no significant weather observed at this time

METAR text: TDPD 172000Z 11009KT 8000 BKN015 26/22 Q1014
Conditions at: TDPD (MELVILLE HALL AR, DM) observed 2000 UTC 17 April 2019
Temperature: 26.0°C (79°F)
Dewpoint: 22.0°C (72°F) [RH = 79%]
Pressure (altimeter): 29.94 inches Hg (1014.0 mb)
Winds: from the ESE (110 degrees) at 10 MPH (9 knots; 4.6 m/s)
Visibility: 5 miles ( 8 km)
Ceiling: 1500 feet AGL
Clouds: broken clouds at 1500 feet AGL
Weather: no significant weather observed at this time

METAR text: TDPD 171900Z 11008KT 7000 -SHRA BKN015 24/22 Q1014
Conditions at: TDPD (MELVILLE HALL AR, DM) observed 1900 UTC 17 April 2019
Temperature: 24.0°C (75°F)
Dewpoint: 22.0°C (72°F) [RH = 89%]
Pressure (altimeter): 29.94 inches Hg (1014.0 mb)
Winds: from the ESE (110 degrees) at 9 MPH (8 knots; 4.1 m/s)
Visibility: 4 miles ( 7 km)
Ceiling: 1500 feet AGL
Clouds: broken clouds at 1500 feet AGL
Weather: -SHRA  (light rain showers)

METAR text: TDPD 171800Z 10011KT 8000 BKN015 26/22 Q1014
Conditions at: TDPD (MELVILLE HALL AR, DM) observed 1800 UTC 17 April 2019
Temperature: 26.0°C (79°F)
Dewpoint: 22.0°C (72°F) [RH = 79%]
Pressure (altimeter): 29.94 inches Hg (1014.0 mb)
Winds: from the E (100 degrees) at 13 MPH (11 knots; 5.7 m/s)
Visibility: 5 miles ( 8 km)
Ceiling: 1500 feet AGL
Clouds: broken clouds at 1500 feet AGL
Weather: no significant weather observed at this time

METAR text: TDPD 171700Z 11013KT 9999 BKN016 28/21 Q1015
Conditions at: TDPD (MELVILLE HALL AR, DM) observed 1700 UTC 17 April 2019
Temperature: 28.0°C (82°F)
Dewpoint: 21.0°C (70°F) [RH = 66%]
Pressure (altimeter): 29.97 inches Hg (1015.0 mb)
Winds: from the ESE (110 degrees) at 15 MPH (13 knots; 6.7 m/s)
Visibility: 6 or more miles (10+ km)
Ceiling: 1600 feet AGL
Clouds: broken clouds at 1600 feet AGL
Weather: no significant weather observed at this time

METAR text: TDPD 171600Z 11013KT 9999 BKN017 28/20 Q1015
Conditions at: TDPD (MELVILLE HALL AR, DM) observed 1600 UTC 17 April 2019
Temperature: 28.0°C (82°F)
Dewpoint: 20.0°C (68°F) [RH = 62%]
Pressure (altimeter): 29.97 inches Hg (1015.0 mb)
Winds: from the ESE (110 degrees) at 15 MPH (13 knots; 6.7 m/s)
Visibility: 6 or more miles (10+ km)
Ceiling: 1700 feet AGL
Clouds: broken clouds at 1700 feet AGL
Weather: no significant weather observed at this time

METAR text: TDPD 171500Z 11012KT 9999 BKN016 28/21 Q1016
Conditions at: TDPD (MELVILLE HALL AR, DM) observed 1500 UTC 17 April 2019
Temperature: 28.0°C (82°F)
Dewpoint: 21.0°C (70°F) [RH = 66%]
Pressure (altimeter): 30.00 inches Hg (1016.0 mb)
Winds: from the ESE (110 degrees) at 14 MPH (12 knots; 6.2 m/s)
Visibility: 6 or more miles (10+ km)
Ceiling: 1600 feet AGL
Clouds: broken clouds at 1600 feet AGL
Weather: no significant weather observed at this time

METAR text: TDPD 171400Z 12007KT 9999 BKN016 26/22 Q1016
Conditions at: TDPD (MELVILLE HALL AR, DM) observed 1400 UTC 17 April 2019
Temperature: 26.0°C (79°F)
Dewpoint: 22.0°C (72°F) [RH = 79%]
Pressure (altimeter): 30.00 inches Hg (1016.0 mb)
Winds: from the ESE (120 degrees) at 8 MPH (7 knots; 3.6 m/s)
Visibility: 6 or more miles (10+ km)
Ceiling: 1600 feet AGL
Clouds: broken clouds at 1600 feet AGL
Weather: no significant weather observed at this time

METAR text: TDPD 171300Z 13007KT 9999 SCT016 BKN032 26/22 Q1016
Conditions at: TDPD (MELVILLE HALL AR, DM) observed 1300 UTC 17 April 2019
Temperature: 26.0°C (79°F)
Dewpoint: 22.0°C (72°F) [RH = 79%]
Pressure (altimeter): 30.00 inches Hg (1016.0 mb)
Winds: from the SE (130 degrees) at 8 MPH (7 knots; 3.6 m/s)
Visibility: 6 or more miles (10+ km)
Ceiling: 3200 feet AGL
Clouds: scattered clouds at 1600 feet AGL
broken clouds at 3200 feet AGL
Weather: no significant weather observed at this time

METAR text: TDPD 171200Z 29002KT 9999 VCSH BKN015 BKN032 23/21 Q1015
Conditions at: TDPD (MELVILLE HALL AR, DM) observed 1200 UTC 17 April 2019
Temperature: 23.0°C (73°F)
Dewpoint: 21.0°C (70°F) [RH = 89%]
Pressure (altimeter): 29.97 inches Hg (1015.0 mb)
Winds: from the WNW (290 degrees) at 2 MPH (2 knots; 1.0 m/s)
Visibility: 6 or more miles (10+ km)
Ceiling: 1500 feet AGL
Clouds: broken clouds at 1500 feet AGL
broken clouds at 3200 feet AGL
Weather: VCSH  (showers in vicinity)

METAR text: TDPD 171100Z 08003KT 9999E 3000W VCSH BKN014 BKN032 23/21 Q1015
Conditions at: TDPD (MELVILLE HALL AR, DM) observed 1100 UTC 17 April 2019
Temperature: 23.0°C (73°F)
Dewpoint: 21.0°C (70°F) [RH = 89%]
Pressure (altimeter): 29.97 inches Hg (1015.0 mb)
Winds: from the E (80 degrees) at 3 MPH (3 knots; 1.5 m/s)
Visibility: 6 or more miles (10+ km)
Ceiling: 1400 feet AGL
Clouds: broken clouds at 1400 feet AGL
broken clouds at 3200 feet AGL
Weather: VCSH  (showers in vicinity)

METAR text: TDPD 171000Z 08006KT 9999 3000W -SHRA VCSH BKN014 BKN032 23/21 Q1015
Conditions at: TDPD (MELVILLE HALL AR, DM) observed 1000 UTC 17 April 2019
Temperature: 23.0°C (73°F)
Dewpoint: 21.0°C (70°F) [RH = 89%]
Pressure (altimeter): 29.97 inches Hg (1015.0 mb)
Winds: from the E (80 degrees) at 7 MPH (6 knots; 3.1 m/s)
Visibility: 6 or more miles (10+ km)
Ceiling: 1400 feet AGL
Clouds: broken clouds at 1400 feet AGL
broken clouds at 3200 feet AGL
Weather: VCSH -SHRA  (showers in vicinity, light rain showers)

Forecast for: TDPD (MELVILLE HALL AR, DM)
Text: TAF TDPD 181700Z 1818/1918 09014KT 9999 SCT018 SCT035
Forecast period: 1800 UTC 18 April 2019 to 1800 UTC 19 April 2019
Forecast type: FROM: standard forecast or significant change
Winds: from the E (90 degrees) at 16 MPH (14 knots; 7.2 m/s)
Visibility: 6 or more miles 10+ km)
Ceiling: at least 12,000 feet AGL
Clouds: scattered clouds at 1800 feet AGL
scattered clouds at 3500 feet AGL
Weather: no significant weather forecast for this period
Text: PROB30
Forecast period: 1800 to 2200 UTC 18 April 2019
Forecast type: TEMPORARY: The following changes expected for less than half the time period
Visibility: missing
Ceiling: 1400 feet AGL
Clouds: broken clouds at 1400 feet AGL
Weather: SHRA  (rain showers)